Weather at Titreyengöl Helipad

Public forecast

Using degrees Celsius for public forecast. Weather courtesy of forecast.io.

Closest aviation weather report (METAR) to Titreyengöl Helipad

Closest report is Antalya International Airport, 32.2 nm (59.7 km) WNW. Retrieved 2021/03/09 08:20 UTC (51 minutes ago):

LTAI 090820Z 19004KT 150V210 9999 SCT100 BKN200 16/04 Q1016 NOSIG RMK RWY18C 19003KT 140V240 RWY36R 19005KT 160V240 RWY18L 22003KT 160V270

Closest aviation forecast (TAF) to Titreyengöl Helipad

Forecast is more than 6 hours old.

Closest forecast is Antalya International Airport, 32.2 nm (59.7 km) WNW. Retrieved 2021-03-09 00:03 UTC (9 hours ago):

TAF LTAI 082240Z 0900/0924 34007KT 9999 SCT100 BKN200 BECMG 0906/0910 16010KT BECMG 0913/0916 34007KT BECMG 0918/0922 CAVOK